Date,TemperatureHighF,TemperatureAvgF,TemperatureLowF,DewpointHighF,DewpointAvgF,DewpointLowF,HumidityHigh,HumidityAvg,HumidityLow,PressureMaxIn,PressureMinIn,WindSpeedMaxMPH,WindSpeedAvgMPH,GustSpeedMaxMPH,PrecipitationSumIn
2013-1-1,50.6,48.2,42.4,50.0,45.3,32.3,98,90,62,30.21,29.98,14,2,14,1.29
2013-1-2,49.2,43.7,38.0,48.7,41.0,36.4,98,90,81,30.18,29.95,20,3,20,0.05
2013-1-3,46.2,38.7,30.8,37.9,32.6,26.0,97,80,53,30.38,30.14,18,4,18,0.00
2013-1-4,48.5,36.0,25.9,28.2,23.5,17.1,90,64,31,30.44,30.34,21,6,21,0.00
2013-1-5,47.2,37.5,26.3,37.6,26.6,20.3,95,67,40,30.45,30.32,13,2,13,0.05
2013-1-6,46.3,40.8,38.0,39.9,36.3,32.3,95,84,71,30.33,30.19,25,9,25,0.00
2013-1-7,55.7,40.5,28.7,33.3,29.8,24.6,89,68,38,30.45,30.29,17,5,17,0.00
2013-1-8,50.3,43.6,34.0,44.1,36.3,28.9,84,76,64,30.49,30.38,12,5,13,0.00
2013-1-9,61.4,55.0,47.2,55.7,51.4,41.0,100,88,77,30.49,30.41,10,3,10,0.00
2013-1-10,62.4,58.2,55.6,55.8,53.6,51.4,97,85,76,30.45,30.26,21,7,21,0.05
2013-1-11,62.2,60.1,56.0,61.8,59.7,55.2,99,98,97,30.27,30.13,22,6,22,0.83
2013-1-12,69.2,63.0,59.6,64.4,61.0,57.6,99,94,76,30.18,30.07,17,3,17,0.01
2013-1-13,66.5,61.4,58.1,61.6,59.2,56.7,98,93,82,30.13,30.04,18,3,18,0.48
2013-1-14,62.1,59.8,55.7,61.8,59.2,54.3,99,98,92,30.13,30.03,20,5,20,1.17
2013-1-15,60.6,56.6,53.8,60.3,56.2,53.1,99,99,96,30.11,29.97,10,1,10,2.01
2013-1-16,62.1,57.7,53.9,61.8,57.1,53.6,99,98,93,30.01,29.92,18,3,18,1.23
2013-1-17,55.2,48.2,36.0,54.8,47.1,31.0,99,96,83,30.27,29.67,43,8,43,1.41
2013-1-18,54.1,39.7,28.9,34.1,29.5,24.1,94,70,34,30.55,30.27,18,4,18,0.00
2013-1-19,52.5,40.7,32.4,33.4,29.7,27.2,85,66,43,30.52,30.28,17,4,17,0.00
2013-1-20,59.7,48.0,36.8,43.1,34.7,28.7,83,61,45,30.28,30.14,20,7,20,0.00
2013-1-21,54.1,42.6,34.0,35.5,28.3,17.7,87,58,42,30.20,30.09,26,9,27,0.00
2013-1-22,42.9,32.8,26.4,19.8,14.7,10.8,61,47,35,30.36,30.17,33,9,33,0.00
2013-1-23,46.8,37.2,27.4,38.0,24.0,12.7,75,59,46,30.43,30.23,26,8,27,0.00
2013-1-24,47.6,42.6,30.6,42.1,24.2,5.3,84,52,24,30.44,30.15,33,11,33,0.00
2013-1-25,40.2,30.2,26.0,39.7,21.9,8.7,98,74,42,30.46,30.21,23,7,23,0.18
2013-1-26,55.1,42.8,34.3,39.9,31.9,18.6,98,69,27,30.34,30.20,24,6,24,0.04
2013-1-27,48.5,41.3,33.4,35.9,32.2,23.8,83,70,58,30.53,30.33,18,8,18,0.00
2013-1-28,49.7,44.6,39.9,47.3,40.2,31.5,98,85,66,30.49,30.32,12,2,12,1.15
2013-1-29,62.4,55.7,43.7,58.9,54.5,42.9,99,96,87,30.34,30.00,14,2,14,0.02
2013-1-30,63.8,56.8,41.6,63.1,55.7,38.6,98,96,88,30.00,29.54,40,13,40,3.61
2013-1-31,44.6,37.5,31.4,32.6,26.9,24.2,81,66,47,30.18,29.80,40,18,40,0.00
2013-2-1,42.3,33.4,23.7,31.8,16.1,6.1,76,50,29,30.43,30.13,38,14,38,0.00
2013-2-2,42.3,30.6,21.3,35.8,22.5,8.7,97,75,26,30.42,30.19,20,4,20,0.12
2013-2-3,48.6,38.8,31.1,38.4,31.9,27.7,96,78,49,30.19,30.05,30,14,30,0.19
2013-2-4,48.8,38.6,28.2,32.5,27.8,22.1,89,67,42,30.19,30.07,24,3,24,0.00
2013-2-5,58.8,46.4,35.0,47.6,40.0,28.7,92,79,53,30.08,30.01,24,9,24,0.00
2013-2-6,64.4,51.9,39.0,45.0,35.8,28.7,90,58,31,30.21,30.08,16,4,16,0.00
2013-2-7,50.2,47.3,44.4,45.8,39.4,29.9,96,76,47,30.20,29.99,20,8,20,0.09
2013-2-8,53.6,45.9,30.0,49.2,41.6,27.7,98,86,53,30.21,29.95,29,8,29,0.07
2013-2-9,61.7,44.4,28.3,30.8,26.8,20.4,94,56,22,30.36,30.15,12,3,12,0.00
2013-2-10,53.1,46.3,39.7,46.3,36.4,27.7,97,70,45,30.38,30.16,24,10,24,1.17
2013-2-11,55.1,50.6,46.3,54.0,48.6,41.9,100,93,79,30.18,30.07,21,6,21,0.65
2013-2-12,55.6,47.0,40.3,47.1,38.1,26.0,96,74,34,30.13,29.84,14,3,14,0.29
2013-2-13,47.4,41.5,37.8,45.6,38.7,32.6,98,90,79,29.99,29.79,31,10,31,0.12
2013-2-14,54.1,41.9,31.0,38.3,33.6,28.9,94,74,48,30.12,29.99,24,8,24,0.01
2013-2-15,58.2,44.7,33.7,42.0,35.7,31.2,94,73,43,30.16,30.03,26,7,26,0.00
2013-2-16,37.6,33.1,27.4,29.7,20.9,14.2,85,61,45,30.17,29.99,21,10,32,0.00
2013-2-17,42.2,31.4,23.5,18.4,13.6,8.5,62,48,33,30.35,30.17,17,7,29,0.00
2013-2-18,56.3,41.1,27.0,32.8,24.9,16.4,72,54,38,30.43,30.22,12,2,21,0.00
2013-2-19,51.7,41.6,34.3,44.3,30.9,17.3,98,69,39,30.21,30.04,24,7,35,0.39
2013-2-20,49.7,39.1,31.0,21.9,12.8,4.4,63,36,16,30.22,30.14,17,6,23,0.00
2013-2-21,61.8,43.5,30.5,40.5,24.2,11.0,92,52,24,30.25,30.07,16,4,16,0.50
2013-2-22,42.2,40.2,38.2,41.0,39.3,37.1,100,96,92,30.23,30.09,23,9,23,1.17
2013-2-23,50.9,45.9,41.0,49.2,45.0,40.5,99,97,93,30.12,29.88,14,2,14,0.73
2013-2-24,62.3,49.0,37.5,44.8,34.6,26.8,96,62,30,30.06,29.93,20,6,20,0.01
2013-2-25,49.9,43.8,36.6,37.7,30.8,21.1,95,61,45,30.09,29.92,24,12,24,0.01
2013-2-26,43.9,39.8,36.6,42.8,38.3,35.6,98,94,80,29.93,29.64,31,13,31,1.60
2013-2-27,52.7,43.8,37.5,39.5,35.6,32.4,90,74,53,29.94,29.81,33,16,33,0.01
2013-2-28,42.5,37.4,33.9,34.8,29.4,26.3,79,73,65,30.03,29.86,31,15,31,0.00
2013-3-1,38.3,35.6,32.6,31.4,29.9,26.8,92,80,72,30.05,29.98,20,10,20,0.00
2013-3-2,36.2,33.6,30.1,30.9,28.3,22.5,92,81,71,30.08,29.97,19,8,26,0.00
2013-3-3,37.7,32.3,28.3,23.0,21.2,19.3,78,64,53,30.14,30.04,28,12,28,0.00
2013-3-4,57.6,50.5,42.4,34.0,30.7,25.3,63,47,37,30.20,30.09,18,6,18,0.00
2013-3-5,55.1,45.9,29.2,53.1,41.2,25.0,97,84,59,30.13,29.71,37,13,37,0.52
2013-3-6,35.6,32.5,28.7,29.3,26.9,22.5,88,79,72,30.25,29.89,40,17,40,0.00
2013-3-7,57.9,40.6,27.3,37.9,29.8,25.3,93,68,39,30.33,30.21,21,4,21,0.00
2013-3-8,63.2,45.5,31.4,36.7,26.2,17.9,76,50,24,30.36,30.25,17,3,17,0.00
2013-3-9,58.2,49.6,40.1,38.3,30.6,24.1,61,48,37,30.37,30.26,12,5,12,0.00
2013-3-10,66.5,54.8,46.2,42.9,37.3,33.3,70,52,34,30.27,30.12,25,9,25,0.00
2013-3-11,57.8,53.8,51.3,53.9,50.5,42.8,97,89,70,30.13,29.83,20,8,20,1.48
2013-3-12,56.6,47.4,37.8,50.4,36.5,28.1,97,69,38,30.13,29.83,26,11,26,0.01
2013-3-13,48.7,41.7,32.9,31.9,27.2,20.8,77,57,42,30.30,30.11,36,14,36,0.00
2013-3-14,52.3,40.1,28.4,26.7,20.1,10.9,67,47,24,30.41,30.29,27,7,27,0.00
2013-3-15,68.5,50.2,36.7,46.5,35.9,26.0,83,59,44,30.29,30.02,25,10,25,0.00
2013-3-16,71.1,62.6,54.1,51.7,45.4,43.3,69,54,40,30.02,29.87,30,18,30,0.00
2013-3-17,66.9,61.4,52.7,55.1,50.0,44.1,85,67,54,30.00,29.90,23,9,23,0.00
2013-3-18,55.9,48.7,44.2,52.5,46.8,43.4,98,93,79,30.02,29.85,25,5,25,0.35
2013-3-19,59.5,50.2,41.5,48.4,33.2,18.3,100,57,27,30.13,29.92,24,10,24,0.01
2013-3-20,54.6,45.0,36.7,31.2,21.6,13.5,70,41,26,30.16,29.93,31,9,31,0.00
2013-3-21,43.4,35.9,27.5,30.5,17.8,7.5,71,49,34,30.03,29.91,25,11,25,0.00
2013-3-22,49.5,39.9,28.9,36.6,26.7,16.0,78,60,45,30.11,30.02,16,2,16,0.00
2013-3-23,53.2,46.3,40.3,49.7,43.2,35.3,97,89,71,30.09,29.85,18,3,18,0.51
2013-3-24,49.5,46.7,39.8,47.3,45.0,32.4,97,94,74,29.87,29.55,37,9,37,1.40
2013-3-25,39.8,34.3,31.1,33.1,27.2,24.7,84,75,66,30.10,29.68,34,21,35,0.00
2013-3-26,38.6,33.4,29.9,29.8,27.0,24.6,90,77,62,30.34,30.06,26,13,27,0.00
2013-3-27,51.2,39.6,31.5,31.1,26.2,23.7,79,60,39,30.39,30.30,26,12,26,0.00
2013-3-28,57.5,45.2,30.6,33.3,27.1,19.6,77,51,33,30.39,30.28,28,9,28,0.00
2013-3-29,61.6,48.5,34.5,39.8,31.5,25.1,74,53,35,30.39,30.24,17,4,17,0.00
2013-3-30,67.1,54.5,44.7,53.4,44.1,36.8,96,70,43,30.24,30.05,23,4,23,0.40
2013-3-31,61.8,57.0,53.0,57.2,54.1,52.2,98,90,77,30.06,29.88,23,10,23,0.98
2013-4-1,65.3,57.3,45.8,55.1,46.2,35.8,96,70,42,30.05,29.87,29,8,29,0.01
2013-4-2,58.7,52.5,43.0,39.7,31.0,24.6,70,45,31,30.18,30.04,18,5,18,0.00
2013-4-3,59.3,51.3,43.3,43.9,34.0,28.5,94,53,37,30.24,30.10,15,4,15,0.22
2013-4-4,44.8,41.5,37.9,42.6,39.2,36.3,100,92,73,30.22,30.01,28,10,28,0.47
2013-4-5,62.7,50.7,40.5,48.0,41.1,36.6,98,73,39,30.12,29.97,24,7,24,0.00
2013-4-6,68.6,56.4,42.2,45.5,38.4,34.1,76,53,34,30.24,30.11,18,5,18,0.00
2013-4-7,72.0,58.4,45.0,52.6,45.3,37.5,84,63,43,30.24,30.10,17,4,17,0.00
2013-4-8,73.4,62.6,54.2,58.2,52.2,46.7,84,70,51,30.17,30.07,21,5,21,0.00
2013-4-9,77.3,66.8,56.9,62.0,56.6,52.3,90,71,49,30.21,30.08,18,4,18,0.00
2013-4-10,81.3,69.6,57.6,64.6,58.0,54.0,91,68,46,30.14,29.93,20,4,20,0.00
2013-4-11,75.0,66.5,59.3,65.9,59.6,55.0,96,79,65,29.95,29.67,27,5,27,1.26
2013-4-12,64.5,59.5,49.1,61.1,50.2,39.5,98,74,42,29.94,29.62,29,13,29,0.87
2013-4-13,72.5,60.6,51.5,43.8,39.0,34.9,65,47,27,30.06,29.92,21,10,21,0.00
2013-4-14,62.2,55.9,49.5,54.5,44.0,32.4,96,66,48,30.08,29.95,17,5,17,0.19
2013-4-15,72.7,60.7,53.0,61.4,56.4,51.9,100,87,61,30.18,29.96,13,3,13,0.05
2013-4-16,76.5,65.2,58.2,65.2,60.5,56.3,98,86,63,30.28,30.18,10,3,10,0.00
2013-4-17,81.1,69.4,62.4,68.0,62.6,59.5,95,80,57,30.24,30.06,20,5,20,0.10
2013-4-18,66.9,64.0,60.8,61.7,59.9,59.2,95,87,78,30.07,29.91,9,2,9,0.00
2013-4-19,67.2,57.6,44.0,63.7,53.6,36.6,97,87,73,30.02,29.76,29,12,29,0.79
2013-4-20,60.4,49.9,40.7,37.0,32.1,28.0,76,52,31,30.28,30.01,26,12,26,0.00
2013-4-21,65.5,54.2,42.7,42.7,37.5,31.0,75,55,37,30.39,30.27,20,8,20,0.00
2013-4-22,68.4,55.7,45.2,50.1,42.9,38.9,80,63,42,30.37,30.18,21,7,21,0.00
2013-4-23,70.7,56.5,43.1,51.4,43.4,33.9,80,63,41,30.27,30.11,15,4,15,0.00
2013-4-24,68.9,59.7,52.3,59.8,55.1,48.2,97,85,68,30.15,30.08,25,6,25,0.19
2013-4-25,67.4,54.6,37.7,52.4,37.3,23.3,98,60,19,30.34,30.12,20,5,20,0.00
2013-4-26,71.0,58.5,44.4,51.1,39.5,29.0,85,50,35,30.42,30.27,16,5,16,0.12
2013-4-27,59.1,54.3,52.0,53.2,51.7,49.5,97,91,76,30.39,30.20,15,7,15,1.40
2013-4-28,55.0,53.4,51.3,54.4,52.7,50.5,98,98,97,30.25,30.04,15,5,15,3.67
2013-4-29,70.5,59.8,53.4,59.1,54.5,50.8,99,85,53,30.08,29.96,16,4,16,0.00
2013-4-30,75.8,66.5,49.7,62.3,58.0,48.2,98,76,51,30.13,30.01,14,4,14,0.00
2013-5-1,68.8,62.0,57.4,58.6,56.1,53.9,95,82,66,30.23,30.12,21,9,21,0.00
2013-5-2,64.2,59.4,57.0,58.4,55.9,53.5,93,88,79,30.23,30.15,20,10,20,0.00
2013-5-3,58.5,56.5,54.9,57.0,54.7,53.2,99,94,83,30.17,30.01,26,12,26,0.16
2013-5-4,56.2,51.5,48.1,53.4,49.8,45.9,98,94,77,30.01,29.89,30,13,30,2.21
2013-5-5,57.7,52.7,47.4,55.7,51.7,46.2,98,96,90,29.90,29.77,22,7,22,2.18
2013-5-6,52.2,48.0,44.8,51.0,47.1,44.0,98,97,92,29.95,29.81,12,2,12,0.21
2013-5-7,67.0,56.3,49.0,55.2,51.1,46.7,98,84,50,30.01,29.91,21,4,21,0.13
2013-5-8,71.9,61.3,50.8,60.1,55.2,49.4,98,82,61,30.08,29.96,20,6,20,0.00
2013-5-9,78.0,66.0,54.4,61.9,57.3,53.0,98,76,47,30.13,30.04,17,5,17,0.00
2013-5-10,72.9,64.7,55.5,64.2,58.9,53.5,97,82,64,30.10,29.97,23,4,23,0.00
2013-5-11,72.2,63.7,59.3,65.2,60.7,56.4,97,90,74,30.00,29.88,20,6,20,0.29
2013-5-12,64.7,57.9,49.1,56.4,44.5,34.3,90,63,34,30.13,29.93,27,10,27,0.00
2013-5-13,63.7,54.0,40.5,43.5,36.8,32.8,86,54,34,30.26,30.11,26,9,26,0.00
2013-5-14,75.1,59.2,40.9,57.9,47.4,37.3,92,67,47,30.29,30.14,24,5,24,0.00
2013-5-15,82.1,71.2,58.6,64.5,57.0,53.5,84,62,43,30.17,30.01,21,9,21,0.00
2013-5-16,78.4,71.5,62.4,64.7,61.9,58.6,92,73,56,30.08,29.99,15,4,15,0.00
2013-5-17,78.5,68.3,58.9,67.8,60.5,55.7,94,77,50,30.11,30.02,14,2,14,0.04
2013-5-18,69.3,65.2,62.5,66.1,63.5,61.0,99,94,86,30.10,30.04,7,1,7,0.57
2013-5-19,66.7,64.2,62.0,66.2,63.3,60.8,99,97,91,30.11,30.00,16,4,16,2.27
2013-5-20,82.3,69.9,58.2,72.3,65.8,57.6,99,88,65,30.13,30.02,15,4,15,0.00
2013-5-21,83.8,73.9,64.7,73.0,67.5,63.1,99,82,58,30.04,29.90,18,4,18,0.18
2013-5-22,82.0,70.4,61.4,71.6,65.4,60.5,98,85,58,30.03,29.85,18,4,18,0.11
2013-5-23,78.1,70.5,64.2,65.1,61.6,54.5,97,75,53,29.97,29.90,24,8,24,0.00
2013-5-24,69.6,62.8,53.0,56.1,50.4,44.0,86,65,42,30.23,29.97,21,9,21,0.00
2013-5-25,75.4,61.2,45.2,54.4,46.2,38.3,87,60,37,30.33,30.21,20,5,20,0.00
2013-5-26,78.0,65.0,51.2,59.2,50.8,42.1,86,62,36,30.29,30.17,16,3,16,0.00
2013-5-27,81.0,68.4,55.7,64.8,57.7,48.5,86,70,50,30.25,30.12,14,3,14,0.00
2013-5-28,81.0,71.1,62.1,65.9,61.9,59.5,92,74,49,30.21,30.12,15,2,15,0.00
2013-5-29,79.6,69.6,61.8,67.9,63.0,59.3,93,81,58,30.24,30.14,12,3,15,0.00
2013-5-30,79.2,69.6,62.5,68.3,64.1,60.1,95,84,63,30.26,30.14,12,3,12,0.00
2013-5-31,80.8,71.3,63.9,69.4,65.3,62.1,96,83,61,30.22,30.08,12,3,12,0.00
2013-6-1,79.6,71.3,65.6,71.0,67.0,63.5,95,87,70,30.11,30.00,12,2,12,0.05
2013-6-2,75.7,69.9,67.4,72.6,68.3,65.8,98,95,82,30.01,29.87,20,1,20,0.98
2013-6-3,80.6,70.7,62.5,70.0,65.2,61.5,99,84,57,29.97,29.87,17,3,17,0.00
2013-6-4,81.9,71.2,59.6,68.5,63.4,58.0,97,78,54,30.03,29.94,12,3,13,0.00
2013-6-5,80.9,69.8,64.4,72.8,66.5,62.6,97,90,73,30.04,29.90,21,4,21,0.57
2013-6-6,77.8,68.9,64.3,70.7,66.6,63.4,98,93,72,29.93,29.77,9,2,9,0.01
2013-6-7,81.6,70.0,62.9,71.2,66.5,61.7,98,90,64,29.84,29.69,21,4,21,0.18
2013-6-8,78.0,68.4,57.3,69.2,63.9,56.5,99,86,67,30.10,29.83,13,3,13,0.01
2013-6-9,80.5,70.9,65.1,72.5,68.0,63.9,98,91,71,30.11,30.00,14,2,14,0.58
2013-6-10,76.8,70.4,65.0,70.0,67.3,63.5,98,91,71,30.03,29.93,29,8,29,0.27
2013-6-11,83.8,75.9,69.3,74.9,70.7,67.2,96,85,65,30.03,29.95,21,10,21,0.02
2013-6-12,87.4,77.8,67.0,77.5,71.9,65.5,97,83,66,30.05,29.95,14,4,14,0.00
2013-6-13,84.9,76.6,69.2,75.2,71.3,66.5,97,84,68,29.96,29.72,28,12,28,0.47
2013-6-14,82.1,72.0,60.0,66.7,61.9,57.3,94,73,46,30.01,29.81,17,5,17,0.01
2013-6-15,81.7,71.0,60.9,67.2,62.0,55.7,93,75,54,30.14,30.01,12,3,12,0.00
2013-6-16,83.8,71.6,59.2,70.8,65.3,57.5,96,82,57,30.16,30.02,14,3,14,0.99
2013-6-17,82.0,71.0,66.1,73.8,68.5,65.2,98,93,70,30.08,29.94,15,2,15,0.75
2013-6-18,77.8,70.9,67.4,72.2,68.7,65.4,98,93,79,29.95,29.83,25,6,25,0.22
2013-6-19,82.3,71.1,63.6,72.5,66.8,62.4,99,87,70,30.09,29.89,16,2,16,0.27
2013-6-20,80.1,71.1,64.3,71.1,67.0,63.3,99,88,68,30.20,30.09,21,3,21,0.01
2013-6-21,81.8,72.0,64.9,69.4,65.8,63.3,96,82,60,30.25,30.16,14,3,17,0.00
2013-6-22,81.9,71.8,62.4,69.0,63.9,59.2,96,78,54,30.23,30.10,13,3,13,0.00
2013-6-23,82.2,72.8,62.6,71.9,67.2,60.8,95,83,67,30.19,30.10,10,2,10,0.00
2013-6-24,83.0,73.9,69.0,74.1,69.9,67.5,98,88,68,30.22,30.09,20,3,20,0.00
2013-6-25,81.8,70.5,63.8,73.0,67.3,62.7,98,90,69,30.16,30.06,14,3,14,0.00
2013-6-26,84.0,74.7,65.7,73.5,70.1,64.8,99,86,66,30.07,29.93,26,4,26,0.00
2013-6-27,82.8,75.5,70.4,75.9,71.6,69.2,97,88,78,29.98,29.80,25,9,25,0.11
2013-6-28,87.3,76.4,67.6,76.0,70.0,66.6,98,82,56,29.84,29.64,23,6,23,0.21
2013-6-29,82.2,73.6,65.0,71.7,65.5,59.4,96,78,48,29.73,29.65,21,3,21,0.01
2013-6-30,83.3,71.9,60.6,71.2,64.2,59.0,96,79,50,29.81,29.70,21,2,21,0.00
2013-7-1,78.5,69.1,64.0,70.5,66.6,62.7,98,92,73,29.93,29.78,30,2,30,0.65
2013-7-2,81.3,72.5,66.8,71.5,68.4,65.7,98,88,66,30.09,29.93,16,2,16,0.12
2013-7-3,69.6,67.8,64.8,69.0,67.0,63.9,98,97,96,30.18,30.05,23,2,23,3.05
2013-7-4,72.8,68.1,65.0,72.2,67.6,64.4,99,98,94,30.18,30.11,15,4,15,1.25
2013-7-5,77.6,70.1,67.4,72.5,68.7,66.8,99,95,83,30.22,30.14,12,2,12,0.58
2013-7-6,77.5,71.0,67.0,74.0,69.9,66.3,99,96,84,30.17,30.08,17,2,20,0.42
2013-7-7,77.5,71.8,69.0,72.5,70.0,68.4,99,94,81,30.17,30.11,15,3,15,0.06
2013-7-8,83.2,73.4,67.8,75.7,70.9,67.2,99,92,71,30.19,30.10,21,2,21,1.26
2013-7-9,84.3,74.6,68.1,76.0,71.4,67.5,99,91,68,30.17,30.05,1,0,0,0.68
2013-7-10,85.5,73.6,68.8,76.1,71.5,68.2,99,94,67,30.11,29.95,0,0,0,1.39
2013-7-11,78.5,72.8,68.4,74.8,71.1,67.8,99,95,84,29.98,29.87,2,0,2,0.00
2013-7-12,85.0,74.7,68.9,75.1,70.3,67.2,100,87,61,29.96,29.87,6,0,6,0.00
2013-7-13,77.5,70.3,66.7,71.3,67.7,65.3,97,92,79,30.08,29.95,13,0,13,0.02
2013-7-14,78.1,71.4,68.5,73.9,70.0,67.6,98,95,83,30.24,30.05,10,0,10,0.48
2013-7-15,82.0,73.9,68.6,74.0,70.5,67.7,98,89,73,30.30,30.21,0,0,0,0.01
2013-7-16,86.8,76.8,68.4,74.3,70.8,67.5,98,83,60,30.31,30.22,5,0,5,0.00
2013-7-17,89.2,74.5,66.7,77.5,69.6,65.8,98,86,59,30.29,30.14,0,0,0,1.19
2013-7-18,86.1,75.0,64.7,76.6,70.2,64.1,99,86,64,30.24,30.06,5,0,5,0.02
2013-7-19,86.8,76.5,70.7,75.9,72.0,69.2,97,87,64,30.12,29.98,0,0,0,0.00
2013-7-20,86.5,73.9,67.7,75.3,70.5,66.7,98,90,63,30.04,29.93,0,0,0,0.02
2013-7-21,82.8,72.9,66.1,75.1,70.4,65.5,99,92,74,30.03,29.92,0,0,0,0.36
2013-7-22,79.2,72.5,67.0,75.4,70.5,66.4,98,94,78,30.00,29.87,0,0,0,0.15
2013-7-23,77.4,72.6,68.8,72.4,69.4,66.7,96,90,81,29.96,29.83,0,0,0,0.00
2013-7-24,85.3,75.3,67.9,75.6,70.5,67.0,98,86,64,29.88,29.80,0,0,0,0.00
2013-7-25,84.8,72.8,64.5,72.7,67.4,63.1,98,84,62,30.00,29.83,0,0,0,0.17
2013-7-26,84.5,70.8,62.2,74.7,67.8,61.0,99,91,68,30.08,29.98,0,0,0,0.54
2013-7-27,77.7,71.5,65.3,71.9,68.5,63.8,98,91,76,30.01,29.90,0,0,0,0.00
2013-7-28,82.3,72.2,64.1,72.3,67.2,62.9,98,85,60,30.04,29.92,0,0,0,0.00
2013-7-29,83.2,70.5,61.1,67.4,62.6,56.8,97,79,43,30.17,30.03,0,0,0,0.00
2013-7-30,85.8,72.2,57.0,72.0,64.4,48.0,96,78,56,30.22,30.12,0,0,0,0.00
2013-7-31,76.8,72.0,68.6,72.3,69.5,66.7,97,92,83,30.15,29.96,0,0,0,0.18
2013-8-1,83.9,73.3,66.3,74.6,69.2,65.4,99,88,67,30.00,29.90,0,0,0,1.29
2013-8-2,84.2,72.8,62.3,74.2,67.1,61.1,98,84,56,30.03,29.93,0,0,0,0.00
2013-8-3,80.6,72.2,62.3,72.3,67.3,60.9,97,85,67,30.05,30.00,0,0,0,0.00
2013-8-4,83.7,76.0,69.8,72.7,68.7,60.6,95,79,62,30.03,29.97,0,0,0,0.00
2013-8-5,83.4,74.0,64.1,73.2,67.7,60.4,95,82,65,30.05,29.95,0,0,0,0.00
2013-8-6,82.4,73.7,68.0,74.0,69.4,65.3,97,87,70,30.01,29.95,0,0,0,0.01
2013-8-7,77.4,72.2,69.7,73.9,71.1,69.1,99,96,88,30.04,29.98,1,0,7,1.78
2013-8-8,83.7,74.4,70.2,75.7,72.0,69.6,98,92,74,30.07,30.00,3,0,14,0.00
2013-8-9,85.1,76.6,69.7,76.6,72.7,68.8,99,89,68,30.09,30.01,14,2,18,0.00
2013-8-10,87.1,75.7,69.0,76.5,72.2,68.4,99,90,67,30.12,30.03,14,1,25,0.12
2013-8-11,83.0,73.8,66.6,76.3,71.6,66.0,99,93,76,30.15,30.06,8,0,14,0.01
2013-8-12,86.3,75.2,68.4,76.5,72.0,67.5,99,91,66,30.11,29.97,16,3,16,0.07
2013-8-13,83.3,75.1,70.1,73.9,71.2,69.3,99,88,70,30.00,29.86,17,5,17,0.00
2013-8-14,79.3,72.0,66.4,72.0,68.5,64.9,97,89,67,30.03,29.88,12,1,12,1.19
2013-8-15,72.1,66.3,61.1,66.6,61.9,59.7,99,86,69,30.10,30.01,38,7,38,0.00
2013-8-16,69.3,64.3,61.5,63.6,60.6,57.8,95,88,80,30.14,30.06,19,6,19,0.00
2013-8-17,64.6,63.2,61.9,62.8,61.3,59.6,98,94,86,30.17,30.10,16,4,16,0.41
2013-8-18,71.6,66.6,62.9,69.1,65.5,62.4,99,97,89,30.22,30.13,12,1,9,0.45
2013-8-19,75.1,68.9,65.4,73.0,67.9,64.8,99,97,90,30.18,30.07,20,2,20,1.80
2013-8-20,79.2,71.8,67.1,74.2,69.4,66.5,99,93,79,30.19,30.10,12,1,12,0.00
2013-8-21,79.2,71.7,69.5,73.9,70.1,68.9,99,95,80,30.24,30.11,10,1,10,0.52
2013-8-22,83.4,72.3,67.6,75.9,70.0,66.7,99,93,70,30.17,30.05,12,1,12,0.77
2013-8-23,85.6,73.9,64.7,73.2,68.5,64.1,99,85,56,30.09,29.98,13,1,13,0.01
2013-8-24,80.6,71.3,64.6,71.5,67.4,63.4,98,88,69,30.27,30.04,18,3,17,0.00
2013-8-25,79.3,69.8,59.7,67.1,63.0,57.7,94,80,59,30.37,30.26,0,0,0,0.00
2013-8-26,81.5,69.5,58.8,68.7,63.3,57.4,98,82,57,30.33,30.15,0,0,0,0.00
2013-8-27,84.0,70.7,59.6,71.9,65.4,58.7,99,85,59,30.18,30.04,0,0,0,0.00
2013-8-28,78.7,68.1,65.2,70.7,66.0,63.8,97,93,75,30.07,30.00,0,0,0,0.00
2013-8-29,76.1,75.4,74.5,72.5,71.6,70.9,90,88,86,29.95,29.93,0,0,0,0.00
2013-8-30,82.3,74.8,69.1,76.2,72.1,67.6,98,91,77,30.02,29.93,0,0,0,0.31
2013-8-31,85.6,76.0,71.0,76.5,72.1,69.6,99,89,67,29.97,29.87,15,1,15,0.00
2013-9-1,81.3,72.7,67.7,74.7,70.1,66.8,98,92,77,29.94,29.84,15,3,15,0.11
2013-9-2,80.1,71.3,65.8,73.9,69.1,64.9,99,93,79,29.98,29.87,7,0,7,0.02
2013-9-3,84.8,75.8,66.7,73.9,69.3,64.7,97,82,56,29.98,29.87,12,1,12,0.00
2013-9-4,84.6,72.8,63.1,72.1,67.2,61.8,99,84,59,30.10,29.97,0,0,0,0.00
2013-9-5,84.3,72.8,63.5,72.2,66.7,62.4,98,83,58,30.14,30.07,7,0,7,0.00
2013-9-6,82.2,71.5,63.4,69.4,65.6,62.0,98,83,61,30.17,30.06,0,0,0,0.00
2013-9-7,81.6,71.2,61.7,71.4,65.7,60.5,98,84,64,30.15,30.01,0,0,0,0.00
2013-9-8,85.1,74.2,64.8,71.3,66.6,63.0,95,79,54,30.03,29.94,0,0,0,0.00
2013-9-9,84.6,74.0,66.1,72.3,68.3,64.3,96,83,61,30.12,29.99,0,0,0,0.00
2013-9-10,84.9,74.1,65.2,73.3,68.5,63.5,96,84,63,30.23,30.12,0,0,0,0.00
2013-9-11,85.5,73.5,63.7,72.0,67.2,62.5,99,83,55,30.23,30.11,0,0,0,0.00
2013-9-12,83.7,73.1,65.2,73.1,68.4,64.0,97,86,67,30.12,29.85,0,0,0,0.01
2013-9-13,80.6,71.6,63.0,68.3,61.7,52.2,96,72,52,29.92,29.83,0,0,0,0.00
2013-9-14,76.4,63.9,51.4,62.3,55.9,50.0,98,77,54,30.10,29.89,0,0,0,0.00
2013-9-15,79.8,67.6,59.4,68.3,62.4,56.8,96,84,61,30.19,30.10,0,0,0,0.00
2013-9-16,83.5,71.6,62.9,68.8,63.8,59.3,99,79,54,30.16,30.06,0,0,0,0.00
2013-9-17,74.2,67.5,63.3,63.4,60.8,58.2,89,80,65,30.25,30.12,0,0,0,0.00
2013-9-18,72.3,65.3,60.2,63.6,59.7,56.6,95,82,69,30.27,30.16,0,0,0,0.00
2013-9-19,81.2,67.8,57.8,68.5,62.4,56.7,98,84,62,30.21,30.09,0,0,0,0.00
2013-9-20,82.8,70.1,60.3,68.1,63.9,59.2,98,83,56,30.11,29.92,0,0,0,0.00
2013-9-21,67.9,66.1,62.9,67.3,64.2,59.4,98,94,86,29.95,29.69,17,1,17,1.27
2013-9-22,77.3,64.8,51.7,65.4,58.5,50.8,99,82,56,29.87,29.77,17,2,17,0.01
2013-9-23,74.5,64.2,59.0,63.1,59.9,57.3,95,87,64,30.05,29.99,5,1,5,0.01
2013-9-24,66.9,64.8,59.5,63.4,62.0,58.1,96,91,86,30.05,29.92,9,2,9,0.06
2013-9-25,63.6,62.4,60.6,62.9,61.6,59.8,98,97,95,29.93,29.86,15,2,15,1.81
2013-9-26,78.1,66.0,57.7,67.5,62.4,57.1,99,89,62,30.03,29.89,4,0,4,0.00
2013-9-27,77.5,65.1,53.0,64.2,59.4,52.2,99,84,57,30.16,30.03,10,0,10,0.00
2013-9-28,73.0,63.0,54.2,61.6,58.0,53.1,98,85,62,30.24,30.13,10,0,10,0.00
2013-9-29,71.0,60.4,50.8,59.8,55.8,50.0,98,86,62,30.18,30.05,4,0,4,0.00
2013-9-30,72.8,61.9,53.5,61.4,56.8,52.0,99,85,61,30.12,30.02,5,0,5,0.00
2013-10-1,78.7,64.5,53.9,66.4,60.1,52.9,98,87,62,30.18,30.08,0,0,0,0.00
2013-10-2,80.8,67.2,56.9,67.7,61.9,56.1,99,85,57,30.18,30.07,0,0,0,0.01
2013-10-3,79.9,68.6,60.9,66.5,62.7,59.7,98,83,56,30.16,30.07,1,0,1,0.00
2013-10-4,81.4,68.1,57.9,68.6,62.8,57.1,99,85,60,30.18,30.10,0,0,0,0.00
2013-10-5,82.7,69.8,59.6,68.6,63.9,58.7,99,83,55,30.15,30.03,0,0,0,0.00
2013-10-6,79.7,69.3,63.2,69.3,65.0,61.4,97,87,65,30.05,29.87,0,0,0,1.14
2013-10-7,70.7,64.0,58.6,64.4,58.8,52.4,98,85,57,29.97,29.82,2,0,14,0.58
2013-10-8,72.0,62.6,56.4,59.5,56.4,54.3,97,81,60,30.17,29.97,1,0,12,0.00
2013-10-9,73.8,60.1,49.1,58.9,53.4,48.1,98,81,54,30.23,30.13,0,0,2,0.00
2013-10-10,73.2,64.3,51.1,60.2,55.9,50.0,97,75,58,30.16,30.03,0,0,0,0.00
2013-10-11,76.0,64.0,53.3,60.6,54.8,50.1,97,75,42,30.07,29.99,0,0,0,0.00
2013-10-12,76.9,65.1,55.8,62.4,57.4,53.4,93,78,56,30.12,30.00,0,0,0,0.00
2013-10-13,77.0,64.7,55.5,63.4,58.8,53.7,96,83,58,30.20,30.10,0,0,0,0.00
2013-10-14,74.5,64.8,57.2,64.2,60.9,56.1,98,88,65,30.22,30.12,0,0,0,0.00
2013-10-15,64.7,61.6,57.3,60.9,58.6,55.9,96,90,78,30.17,30.07,0,0,0,0.00
2013-10-16,68.1,62.1,57.6,62.0,59.1,56.1,98,90,78,30.09,29.98,4,0,4,0.00
2013-10-17,66.5,62.2,57.3,66.2,61.4,56.4,99,97,93,30.00,29.89,9,0,7,0.65
2013-10-18,69.6,57.0,45.8,59.6,53.5,45.1,99,89,61,30.04,29.93,4,0,4,0.01
2013-10-19,62.8,55.6,49.6,55.5,52.7,47.9,97,90,72,30.00,29.94,17,1,17,0.01
2013-10-20,67.8,51.1,36.9,49.7,43.5,35.9,99,79,40,30.11,30.00,7,0,7,0.01
2013-10-21,68.5,54.4,44.2,56.7,49.7,42.3,98,85,57,30.18,30.05,0,0,0,0.00
2013-10-22,70.6,58.8,52.3,56.3,52.5,47.6,98,82,50,30.08,29.83,25,2,25,0.01
2013-10-23,56.6,50.6,40.9,50.4,42.1,34.0,87,73,49,30.10,29.83,23,5,23,0.00
2013-10-24,60.7,46.7,34.7,44.5,38.7,32.6,93,75,47,30.24,30.09,9,0,9,0.00
2013-10-25,54.2,42.8,32.8,39.6,29.6,23.4,89,62,36,30.41,30.24,12,0,12,0.00
2013-10-26,57.4,42.6,31.2,39.7,34.0,28.9,93,73,46,30.40,30.22,2,0,2,0.00
2013-10-27,61.1,54.3,46.4,54.4,46.8,33.9,92,76,58,30.22,30.14,10,0,10,0.00
2013-10-28,60.9,55.7,51.4,56.7,53.5,50.2,98,92,80,30.31,30.16,12,1,12,0.18
2013-10-29,70.3,57.3,48.4,60.0,54.3,47.6,99,90,68,30.37,30.28,5,0,5,0.00
2013-10-30,74.6,62.0,53.8,61.7,57.2,52.4,98,86,57,30.32,30.18,14,2,14,0.00
2013-10-31,69.5,61.6,57.2,63.3,58.8,55.0,97,91,80,30.20,29.88,14,1,14,0.09
2013-11-1,72.3,63.6,53.0,63.7,56.2,48.2,98,79,46,29.88,29.71,18,3,18,0.31
2013-11-2,63.6,52.9,43.0,49.6,43.8,38.9,97,73,50,30.09,29.81,24,3,24,0.00
2013-11-3,63.9,49.9,39.5,43.5,40.7,37.4,95,73,41,30.36,30.07,9,0,9,0.00
2013-11-4,58.8,47.1,39.6,42.5,38.8,36.0,92,75,49,30.50,30.36,1,0,1,0.00
2013-11-5,62.3,48.2,38.0,42.7,38.0,34.2,91,70,41,30.54,30.41,0,0,0,0.00
2013-11-6,67.5,57.7,46.9,58.4,53.6,42.6,97,86,70,30.41,30.15,12,0,12,0.00
2013-11-7,61.1,54.2,43.5,58.2,47.4,32.9,98,78,60,30.21,30.05,25,8,25,0.22
2013-11-8,60.0,46.3,37.7,32.9,28.9,21.7,75,54,23,30.38,30.20,20,3,20,0.00
2013-11-9,55.7,46.5,39.3,41.3,34.0,28.1,82,62,43,30.41,30.28,1,0,0,0.00
2013-11-10,68.4,54.9,43.1,44.2,37.3,31.0,79,54,28,30.31,30.23,1,0,1,0.00
2013-11-11,64.2,49.6,38.8,38.5,33.9,27.1,76,56,33,30.36,30.22,0,0,0,0.00
2013-11-12,56.6,44.3,29.1,43.2,31.4,18.1,75,61,47,30.49,30.16,0,0,0,0.00
2013-11-13,51.4,35.0,21.2,22.7,17.8,11.8,81,53,24,30.64,30.49,0,0,0,0.00
2013-11-14,58.6,43.1,28.2,24.4,20.8,16.4,69,44,22,30.56,30.38,0,0,0,0.00
2013-11-15,50.2,46.6,38.7,50.0,39.0,21.8,100,78,39,30.39,30.21,0,0,0,0.34
2013-11-16,56.1,53.3,50.1,55.5,52.7,49.3,99,98,97,30.28,30.19,4,0,4,0.06
2013-11-17,61.4,57.7,55.5,61.1,57.0,54.7,99,98,96,30.22,29.95,6,0,6,1.23
2013-11-18,66.7,59.4,48.6,65.1,45.2,34.3,99,62,34,30.05,29.91,21,6,21,0.00
2013-11-19,59.0,48.0,39.8,39.9,33.1,28.5,76,57,38,30.23,30.03,12,2,12,0.00
2013-11-20,53.5,45.1,38.4,35.2,32.2,28.9,72,61,46,30.41,30.23,12,3,12,0.00
2013-11-21,51.5,48.8,45.3,50.8,44.6,34.3,98,86,62,30.46,30.37,9,2,9,0.01
2013-11-22,57.5,54.8,51.3,57.2,54.4,50.8,99,99,98,30.41,30.20,4,0,4,0.12
2013-11-23,57.0,49.5,36.2,56.7,43.7,25.8,99,81,52,30.27,30.14,18,6,18,0.00
2013-11-24,48.4,35.1,25.2,25.8,17.1,8.9,73,51,22,30.54,30.24,20,4,20,0.00
2013-11-25,39.7,34.2,27.4,32.3,17.9,10.1,95,53,33,30.55,30.32,9,3,9,0.39
2013-11-26,49.2,43.7,33.6,48.7,42.9,32.3,99,97,89,30.32,29.70,13,2,13,0.38
2013-11-27,45.1,32.9,24.7,43.6,27.3,18.4,95,80,69,30.30,29.67,26,10,26,0.00
2013-11-28,51.7,32.9,19.4,30.5,23.1,16.8,92,70,38,30.55,30.29,10,1,10,0.00
2013-11-29,62.3,42.7,28.4,36.6,27.4,15.5,81,58,27,30.59,30.48,9,1,9,0.00
2013-11-30,50.3,40.4,33.3,30.0,27.5,25.9,75,61,40,30.61,30.42,10,2,10,0.00
2013-12-1,56.5,44.4,36.9,40.1,34.0,26.6,84,68,46,30.42,30.07,9,1,9,0.00
2013-12-2,48.5,46.0,42.9,48.2,44.0,35.0,100,93,69,30.07,29.87,4,0,4,0.00
2013-12-3,51.7,50.1,48.2,51.3,49.7,47.7,100,99,98,29.97,29.89,4,0,5,0.00
2013-12-4,58.7,55.3,51.7,58.4,55.0,51.4,99,99,99,30.08,29.96,5,1,5,0.00
2013-12-5,65.8,62.6,58.7,65.8,62.3,58.4,100,99,99,30.12,30.00,16,2,16,0.00
2013-12-6,70.5,66.0,59.2,67.0,64.3,57.8,99,94,87,30.05,29.96,22,8,22,0.13
2013-12-7,61.3,51.9,42.9,58.1,49.2,42.1,98,91,71,30.32,30.00,9,2,9,0.00
2013-12-8,48.6,42.2,39.3,47.2,41.4,38.8,98,97,93,30.34,30.23,8,3,8,0.00
2013-12-9,49.9,45.5,39.1,49.6,45.1,38.6,99,99,98,30.27,30.07,5,1,5,0.00
2013-12-10,49.9,43.1,29.0,49.6,38.1,21.1,99,83,56,30.36,29.99,20,5,20,0.00
2013-12-11,54.1,38.4,26.3,30.5,23.4,19.8,88,58,27,30.52,30.36,12,2,12,0.00
2013-12-12,44.6,37.3,29.0,25.2,13.7,4.2,63,40,19,30.49,30.37,16,4,16,0.00
2013-12-13,51.0,39.4,27.5,28.0,21.1,13.4,66,49,32,30.44,30.25,6,1,6,0.00
2013-12-14,47.2,44.7,41.0,46.6,40.1,25.2,98,85,50,30.27,29.87,7,2,7,0.00
2013-12-15,48.0,37.3,28.7,47.5,33.7,26.7,98,87,76,30.22,29.87,22,8,22,0.00
2013-12-16,52.4,39.4,27.6,33.6,29.9,25.9,94,72,43,30.31,30.21,15,4,15,0.00
2013-12-17,58.1,49.1,35.3,39.4,34.8,22.4,65,58,46,30.27,30.10,23,10,23,0.00
2013-12-18,55.1,41.3,34.1,28.4,19.3,9.5,63,43,21,30.36,30.19,17,4,17,0.00
2013-12-19,61.9,47.2,36.1,30.6,20.5,10.0,51,35,23,30.40,30.26,12,2,12,0.00
2013-12-20,58.5,50.7,40.3,49.1,40.1,28.5,82,68,51,30.28,30.17,7,1,7,0.19
2013-12-21,63.3,57.3,54.1,62.7,55.8,48.7,99,95,82,30.18,29.97,6,1,6,0.46
2013-12-22,64.6,57.9,54.4,63.4,57.2,54.1,99,98,92,30.10,29.92,16,2,16,4.54
2013-12-23,54.4,47.0,34.7,54.1,44.3,30.2,99,90,78,30.25,30.04,15,4,15,0.05
2013-12-24,36.1,32.1,25.1,30.2,23.8,18.1,89,72,57,30.46,30.23,18,4,18,0.00
2013-12-25,43.7,31.9,25.0,25.7,21.9,18.4,82,68,44,30.57,30.43,6,1,6,0.00
2013-12-26,53.4,37.8,27.2,32.6,25.8,19.7,85,65,34,30.45,30.34,12,1,12,0.00
2013-12-27,53.4,39.7,30.6,30.5,26.2,20.2,75,60,38,30.53,30.39,8,1,8,0.00
2013-12-28,46.7,39.6,32.8,40.7,33.3,26.3,96,79,50,30.47,30.07,10,1,10,0.90
2013-12-29,51.9,44.2,39.4,48.2,42.4,38.0,98,94,84,30.08,29.90,13,4,13,0.36
2013-12-30,47.4,43.0,40.0,42.6,39.4,36.3,95,87,75,30.23,30.06,16,5,16,0.01
2013-12-31,46.1,38.2,32.0,36.6,27.0,18.2,93,66,37,30.42,30.21,20,4,20,0.00
2014-1-1,49.8,41.0,35.6,35.2,28.9,20.8,81,62,51,30.43,30.19,5,1,5,0.00
2014-1-2,46.7,38.7,22.4,45.9,35.3,15.8,98,88,71,30.19,29.80,22,5,22,0.52